Kimmell, Indiana
Current Conditions -  °F | °C
As of 2:53 PM on Friday 24 Oct 2014 (Local Time) from KGSH Reporting Station
Scattered Clouds Scattered Clouds  
Wind Chill: 63°   Ceiling: Unl
Heat Index: 63°   Visibility: 10mi
Dew Point: 50°   Wind: 10mph
Humidity: 63%   Direction: 240°WSW
Pressure: 30"   Gusts: NA
Location:  41.4°N, 85.55°W
Report Text: KGSH 241853Z AUTO 24009KT 10SM SCT030 17/10 A3000 RMK AO2 SLP159 T01720100
Loading
Personal Weather Stations






























Interactive Weather Map
Tropical Storm Tracking
New forecast layout! Learn more

10-Day Weather Forecast

Advertisements
Track Severe Weather on mobile